createdAt,value
2023-08-18T00:00:47.273Z,26.10
2023-08-18T00:03:15.145Z,26.10
2023-08-18T00:05:42.553Z,26.20
2023-08-18T00:08:09.845Z,26.20
2023-08-18T00:10:40.052Z,26.10
2023-08-18T00:13:07.430Z,26.10
2023-08-18T00:15:34.825Z,26.10
2023-08-18T00:18:02.309Z,26.10
2023-08-18T00:20:29.626Z,26.10
2023-08-18T00:22:57.112Z,26.10
2023-08-18T00:25:24.373Z,26.10
2023-08-18T00:27:54.268Z,26.10
2023-08-18T00:30:26.653Z,26.10
2023-08-18T00:32:54.599Z,26.10
2023-08-18T00:35:23.183Z,26.10
2023-08-18T00:37:50.589Z,26.10
2023-08-18T00:40:18.013Z,26.10
2023-08-18T00:42:45.569Z,26.00
2023-08-18T00:45:12.943Z,26.00
2023-08-18T00:47:40.758Z,26.00
2023-08-18T00:50:11.148Z,26.00
2023-08-18T00:52:44.119Z,25.90
2023-08-18T00:55:12.397Z,25.90
2023-08-18T00:57:40.777Z,25.90
2023-08-18T01:00:09.324Z,25.90
2023-08-18T01:02:37.003Z,26.00
2023-08-18T01:05:04.485Z,26.00
2023-08-18T01:07:31.837Z,25.90
2023-08-18T01:09:59.193Z,25.90
2023-08-18T01:12:41.445Z,25.90
2023-08-18T01:15:21.444Z,25.80
2023-08-18T01:17:53.182Z,25.80
2023-08-18T01:20:22.528Z,25.80
2023-08-18T01:23:02.858Z,25.80
2023-08-18T01:25:30.779Z,25.70
2023-08-18T01:28:01.092Z,25.70
2023-08-18T01:30:52.794Z,25.70
2023-08-18T01:33:32.072Z,25.70
2023-08-18T01:36:06.007Z,25.60
2023-08-18T01:38:34.350Z,25.60
2023-08-18T01:41:02.995Z,25.60
2023-08-18T01:43:34.681Z,25.60
2023-08-18T01:46:20.437Z,25.60
2023-08-18T01:48:47.852Z,25.60
2023-08-18T01:51:15.211Z,25.60
2023-08-18T01:53:42.545Z,25.60
2023-08-18T01:56:10.017Z,25.60
2023-08-18T01:58:38.373Z,25.50
2023-08-18T02:01:06.005Z,25.50
2023-08-18T02:03:33.551Z,25.40
2023-08-18T02:06:02.020Z,25.40
2023-08-18T02:08:29.292Z,25.40
2023-08-18T02:11:07.060Z,25.40
2023-08-18T02:13:35.316Z,25.40
2023-08-18T02:16:03.385Z,25.40
2023-08-18T02:18:33.547Z,25.40
2023-08-18T02:21:03.574Z,25.40
2023-08-18T02:23:31.012Z,25.40
2023-08-18T02:26:05.971Z,25.50
2023-08-18T02:28:35.415Z,25.50
2023-08-18T02:31:07.572Z,25.40
2023-08-18T02:33:36.763Z,25.40
2023-08-18T02:36:04.391Z,25.40
2023-08-18T02:38:34.181Z,25.40
2023-08-18T02:41:01.716Z,25.40
2023-08-18T02:43:29.270Z,25.40
2023-08-18T02:46:00.115Z,25.30
2023-08-18T02:48:29.087Z,25.30
2023-08-18T02:51:09.786Z,25.30
2023-08-18T02:53:40.876Z,25.30
2023-08-18T02:56:08.873Z,25.30
2023-08-18T02:58:39.398Z,25.20
2023-08-18T03:01:08.603Z,25.20
2023-08-18T03:03:36.874Z,25.20
2023-08-18T03:06:07.258Z,25.20
2023-08-18T03:08:36.993Z,25.20
2023-08-18T03:11:04.701Z,25.10
2023-08-18T03:13:32.725Z,25.10
2023-08-18T03:16:00.425Z,25.10
2023-08-18T03:18:27.876Z,25.10
2023-08-18T03:21:00.726Z,25.10
2023-08-18T03:23:29.317Z,25.10
2023-08-18T03:26:02.102Z,25.10
2023-08-18T03:28:30.460Z,25.00
2023-08-18T03:31:03.200Z,25.10
2023-08-18T03:33:32.932Z,25.10
2023-08-18T03:36:01.402Z,25.10
2023-08-18T03:38:28.862Z,25.10
2023-08-18T03:41:03.793Z,25.10
2023-08-18T03:43:31.505Z,25.00
2023-08-18T03:46:24.500Z,25.00
2023-08-18T03:48:55.207Z,25.00
2023-08-18T03:51:23.302Z,24.90
2023-08-18T03:53:50.740Z,24.90
2023-08-18T03:56:18.479Z,24.90
2023-08-18T03:58:45.794Z,24.90
2023-08-18T04:01:13.312Z,24.90
2023-08-18T04:03:43.868Z,24.90
2023-08-18T04:06:14.641Z,24.90
2023-08-18T04:08:44.244Z,24.90
2023-08-18T04:11:13.054Z,24.90
2023-08-18T04:13:41.071Z,24.80
2023-08-18T04:16:09.142Z,24.80
2023-08-18T04:18:38.295Z,24.80
2023-08-18T04:21:05.618Z,24.80
2023-08-18T04:23:32.976Z,24.80
2023-08-18T04:26:01.914Z,24.80
2023-08-18T04:28:31.268Z,24.80
2023-08-18T04:31:00.546Z,24.80
2023-08-18T04:33:57.509Z,24.80
2023-08-18T04:36:25.828Z,24.80
2023-08-18T04:38:53.108Z,24.90
2023-08-18T04:41:25.049Z,24.90
2023-08-18T04:43:53.742Z,24.90
2023-08-18T04:46:24.900Z,24.90
2023-08-18T04:48:53.787Z,24.90
2023-08-18T04:51:21.458Z,24.80
2023-08-18T04:53:49.356Z,24.80
2023-08-18T04:56:16.992Z,24.90
2023-08-18T04:58:44.277Z,24.90
2023-08-18T05:01:11.776Z,25.00
2023-08-18T05:03:39.435Z,25.00
2023-08-18T05:06:14.099Z,25.00
2023-08-18T05:08:42.133Z,25.00
2023-08-18T05:11:11.585Z,25.10
2023-08-18T05:13:43.163Z,25.20
2023-08-18T05:16:10.846Z,25.20
2023-08-18T05:18:38.363Z,25.30
2023-08-18T05:21:06.189Z,25.30
2023-08-18T05:23:33.635Z,25.40
2023-08-18T05:26:01.631Z,25.40
2023-08-18T05:28:30.154Z,25.50
2023-08-18T05:30:57.936Z,25.50
2023-08-18T05:33:25.499Z,25.60
2023-08-18T05:35:52.816Z,25.70
2023-08-18T05:38:20.136Z,25.80
2023-08-18T05:40:50.424Z,25.80
2023-08-18T05:43:22.511Z,26.00
2023-08-18T05:45:50.143Z,26.10
2023-08-18T05:48:17.594Z,26.20
2023-08-18T05:50:45.040Z,26.20
2023-08-18T05:53:12.345Z,26.30
2023-08-18T05:55:40.760Z,26.40
2023-08-18T05:58:09.094Z,26.50
2023-08-18T06:00:36.412Z,26.50
2023-08-18T06:03:03.982Z,26.60
2023-08-18T06:05:31.374Z,26.70
2023-08-18T06:07:58.743Z,26.70
2023-08-18T06:10:26.180Z,26.80
2023-08-18T06:12:53.594Z,26.80
2023-08-18T06:15:22.482Z,26.90
2023-08-18T06:17:50.453Z,26.80
2023-08-18T06:20:17.876Z,26.90
2023-08-18T06:22:45.228Z,27.00
2023-08-18T06:25:12.906Z,27.20
2023-08-18T06:27:40.688Z,27.30
2023-08-18T06:30:08.507Z,27.30
2023-08-18T06:32:36.098Z,27.40
2023-08-18T06:35:03.512Z,27.60
2023-08-18T06:37:30.928Z,27.60
2023-08-18T06:39:58.339Z,27.70
2023-08-18T06:42:26.272Z,27.90
2023-08-18T06:44:53.635Z,28.10
2023-08-18T06:47:21.120Z,28.10
2023-08-18T06:49:48.483Z,28.20
2023-08-18T06:52:15.919Z,28.30
2023-08-18T06:54:46.891Z,28.40
2023-08-18T06:57:14.397Z,28.60
2023-08-18T06:59:41.680Z,28.80
2023-08-18T07:02:09.055Z,28.90
2023-08-18T07:04:36.457Z,29.00
2023-08-18T07:07:04.801Z,29.20
2023-08-18T07:09:32.139Z,29.30
2023-08-18T07:12:00.854Z,29.30
2023-08-18T07:14:28.279Z,29.40
2023-08-18T07:16:55.520Z,29.50
2023-08-18T07:19:25.283Z,29.50
2023-08-18T07:21:52.607Z,29.60
2023-08-18T07:24:20.006Z,29.60
2023-08-18T07:26:47.379Z,29.60
2023-08-18T07:29:14.749Z,29.60
2023-08-18T07:31:44.205Z,29.60
2023-08-18T07:34:11.659Z,29.60
2023-08-18T07:36:40.494Z,29.80
2023-08-18T07:39:11.764Z,29.80
2023-08-18T07:41:44.875Z,29.80
2023-08-18T07:44:12.761Z,29.70
2023-08-18T07:46:40.323Z,29.60
2023-08-18T07:49:07.650Z,29.70
2023-08-18T07:51:35.084Z,29.80
2023-08-18T07:54:05.040Z,29.90
2023-08-18T07:56:32.452Z,29.90
2023-08-18T07:58:59.790Z,30.00
2023-08-18T08:01:27.161Z,30.00
2023-08-18T08:03:54.585Z,29.90
2023-08-18T08:06:22.456Z,29.90
2023-08-18T08:08:49.683Z,30.00
2023-08-18T08:11:17.036Z,30.10
2023-08-18T08:13:47.492Z,30.10
2023-08-18T08:16:14.869Z,30.10
2023-08-18T08:18:42.314Z,30.20
2023-08-18T08:21:09.643Z,30.10
2023-08-18T08:23:37.137Z,30.10
2023-08-18T08:26:04.409Z,30.10
2023-08-18T08:28:31.836Z,30.00
2023-08-18T08:33:34.692Z,30.10
2023-08-18T08:36:02.016Z,30.10
2023-08-18T08:38:29.426Z,30.20
2023-08-18T08:41:00.764Z,30.20
2023-08-18T08:43:28.480Z,30.30
2023-08-18T08:45:59.010Z,30.30
2023-08-18T08:48:33.367Z,30.40
2023-08-18T08:51:07.283Z,30.50
2023-08-18T08:53:41.137Z,30.60
2023-08-18T08:56:09.848Z,30.50
2023-08-18T08:58:40.276Z,30.40
2023-08-18T09:01:08.236Z,30.40
2023-08-18T09:03:36.365Z,30.50
2023-08-18T09:06:04.474Z,30.50
2023-08-18T09:08:31.900Z,30.40
2023-08-18T09:10:59.327Z,30.40
2023-08-18T09:13:26.742Z,30.50
2023-08-18T09:15:54.229Z,30.40
2023-08-18T09:18:22.097Z,30.30
2023-08-18T09:20:49.674Z,30.30
2023-08-18T09:23:22.699Z,30.50
2023-08-18T09:25:51.873Z,30.60
2023-08-18T09:28:19.734Z,30.70
2023-08-18T09:30:48.455Z,30.80
2023-08-18T09:33:18.816Z,30.80
2023-08-18T09:35:47.687Z,31.00
2023-08-18T09:38:15.260Z,31.10
2023-08-18T09:40:42.617Z,31.20
2023-08-18T09:43:09.920Z,31.20
2023-08-18T09:45:41.965Z,31.40
2023-08-18T09:48:12.387Z,31.40
2023-08-18T09:50:41.042Z,31.40
2023-08-18T09:53:10.096Z,31.40
2023-08-18T09:55:44.406Z,31.40
2023-08-18T09:58:14.890Z,31.50
2023-08-18T10:00:45.079Z,31.60
2023-08-18T10:03:18.570Z,31.60
2023-08-18T10:05:49.405Z,31.60
2023-08-18T10:08:17.762Z,31.50
2023-08-18T10:10:46.567Z,31.40
2023-08-18T10:13:15.377Z,31.50
2023-08-18T10:15:43.674Z,31.40
2023-08-18T10:18:12.970Z,31.50
2023-08-18T10:20:57.081Z,31.50
2023-08-18T10:23:25.967Z,31.60
2023-08-18T10:25:54.366Z,31.70
2023-08-18T10:28:24.054Z,31.80
2023-08-18T10:31:05.854Z,32.00
2023-08-18T10:33:45.559Z,32.00
2023-08-18T10:36:23.085Z,32.10
2023-08-18T10:38:53.295Z,32.10
2023-08-18T10:41:27.899Z,32.00
2023-08-18T10:43:59.849Z,32.00
2023-08-18T10:46:37.792Z,31.90
2023-08-18T10:49:05.361Z,31.80
2023-08-18T10:51:35.318Z,31.80
2023-08-18T10:54:02.703Z,31.90
2023-08-18T10:56:30.663Z,31.90
2023-08-18T10:58:57.981Z,32.00
2023-08-18T11:01:25.884Z,32.10
2023-08-18T11:03:53.417Z,32.10
2023-08-18T11:06:21.218Z,32.10
2023-08-18T11:08:49.421Z,32.40
2023-08-18T11:11:17.577Z,32.60
2023-08-18T11:13:45.461Z,32.80
2023-08-18T11:16:12.966Z,32.90
2023-08-18T11:18:43.189Z,33.00
2023-08-18T11:21:10.635Z,32.80
2023-08-18T11:23:38.236Z,33.00
2023-08-18T11:26:05.713Z,33.20
2023-08-18T11:28:33.462Z,33.20
2023-08-18T11:31:06.112Z,33.50
2023-08-18T11:33:33.867Z,33.60
2023-08-18T11:36:01.158Z,33.90
2023-08-18T11:38:28.483Z,34.00
2023-08-18T11:40:56.042Z,33.80
2023-08-18T11:43:24.971Z,34.00
2023-08-18T11:45:53.286Z,34.20
2023-08-18T11:48:22.182Z,34.60
2023-08-18T11:50:55.657Z,34.40
2023-08-18T11:53:27.271Z,34.50
2023-08-18T11:55:54.985Z,34.40
2023-08-18T11:58:24.459Z,34.50
2023-08-18T12:00:52.228Z,34.50
2023-08-18T12:03:28.197Z,34.10
2023-08-18T12:05:57.880Z,34.20
2023-08-18T12:08:27.936Z,34.40
2023-08-18T12:10:55.968Z,34.70
2023-08-18T12:13:24.148Z,34.80
2023-08-18T12:15:51.941Z,35.10
2023-08-18T12:18:19.989Z,35.20
2023-08-18T12:20:47.553Z,35.20
2023-08-18T12:23:16.497Z,35.30
2023-08-18T12:25:44.106Z,35.10
2023-08-18T12:28:12.002Z,35.20
2023-08-18T12:30:39.387Z,35.30
2023-08-18T12:33:06.764Z,35.00
2023-08-18T12:35:34.385Z,34.80
2023-08-18T12:38:02.628Z,34.30
2023-08-18T12:40:30.012Z,34.00
2023-08-18T12:42:57.400Z,34.00
2023-08-18T12:45:25.023Z,34.40
2023-08-18T12:47:52.450Z,34.40
2023-08-18T12:50:21.360Z,34.40
2023-08-18T12:52:48.738Z,34.80
2023-08-18T12:55:15.995Z,35.10
2023-08-18T12:57:44.781Z,35.00
2023-08-18T13:00:12.872Z,34.70
2023-08-18T13:02:41.261Z,34.60
2023-08-18T13:05:08.961Z,34.40
2023-08-18T13:07:36.333Z,34.30
2023-08-18T13:10:03.844Z,34.60
2023-08-18T13:12:32.396Z,34.80
2023-08-18T13:14:59.757Z,34.90
2023-08-18T13:17:27.237Z,34.90
2023-08-18T13:19:57.694Z,34.50
2023-08-18T13:22:26.178Z,34.30
2023-08-18T13:24:56.589Z,34.60
2023-08-18T13:27:25.866Z,34.90
2023-08-18T13:29:54.474Z,34.90
2023-08-18T13:32:22.052Z,34.90
2023-08-18T13:34:49.414Z,35.10
2023-08-18T13:37:16.677Z,35.20
2023-08-18T13:39:44.043Z,35.20
2023-08-18T13:42:11.568Z,35.30
2023-08-18T13:44:39.105Z,35.10
2023-08-18T13:47:07.219Z,34.80
2023-08-18T13:49:34.766Z,34.50
2023-08-18T13:52:02.117Z,34.30
2023-08-18T13:54:29.455Z,34.10
2023-08-18T13:56:56.774Z,34.30
2023-08-18T13:59:24.047Z,34.20
2023-08-18T14:01:51.523Z,34.80
2023-08-18T14:04:19.490Z,34.50
2023-08-18T14:06:46.900Z,34.60
2023-08-18T14:09:15.350Z,34.60
2023-08-18T14:11:42.763Z,34.30
2023-08-18T14:14:10.063Z,34.20
2023-08-18T14:16:37.626Z,33.90
2023-08-18T14:19:05.747Z,33.40
2023-08-18T14:21:33.328Z,33.10
2023-08-18T14:24:00.640Z,32.80
2023-08-18T14:26:28.126Z,32.50
2023-08-18T14:28:55.466Z,32.50
2023-08-18T14:31:22.885Z,32.40
2023-08-18T14:33:50.567Z,32.10
2023-08-18T14:36:18.218Z,31.90
2023-08-18T14:38:45.583Z,31.80
2023-08-18T14:41:13.176Z,31.70
2023-08-18T14:43:40.939Z,31.50
2023-08-18T14:46:09.744Z,31.40
2023-08-18T14:48:38.077Z,31.20
2023-08-18T14:51:08.086Z,31.10
2023-08-18T14:53:36.727Z,31.00
2023-08-18T14:56:04.981Z,30.80
2023-08-18T14:58:32.386Z,30.70
2023-08-18T15:00:59.870Z,30.80
2023-08-18T15:03:27.444Z,30.90
2023-08-18T15:05:54.947Z,31.00
2023-08-18T15:08:22.228Z,31.00
2023-08-18T15:10:49.834Z,30.90
2023-08-18T15:13:17.872Z,30.80
2023-08-18T15:15:45.250Z,30.80
2023-08-18T15:18:12.851Z,30.80
2023-08-18T15:20:40.120Z,30.80
2023-08-18T15:23:07.554Z,30.90
2023-08-18T15:25:34.916Z,30.90
2023-08-18T15:28:02.329Z,30.90
2023-08-18T15:30:33.186Z,30.80
2023-08-18T15:33:00.675Z,30.70
2023-08-18T15:35:27.976Z,30.60
2023-08-18T15:37:55.322Z,30.50
2023-08-18T15:40:22.794Z,30.60
2023-08-18T15:42:50.152Z,30.70
2023-08-18T15:45:17.775Z,30.70
2023-08-18T15:47:45.202Z,30.70
2023-08-18T15:50:12.674Z,30.70
2023-08-18T15:52:40.072Z,30.60
2023-08-18T15:55:07.743Z,30.50
2023-08-18T15:57:35.101Z,30.50
2023-08-18T16:00:04.762Z,30.50
2023-08-18T16:02:40.410Z,30.40
2023-08-18T16:05:08.256Z,30.40
2023-08-18T16:07:35.635Z,30.40
2023-08-18T16:10:03.162Z,30.40
2023-08-18T16:12:30.491Z,30.40
2023-08-18T16:15:27.740Z,30.40
2023-08-18T16:17:45.368Z,30.20
2023-08-18T16:20:13.286Z,30.00
2023-08-18T16:22:40.618Z,30.00
2023-08-18T16:25:08.379Z,30.00
2023-08-18T16:27:35.963Z,30.00
2023-08-18T16:30:03.782Z,30.00
2023-08-18T16:32:32.115Z,30.10
2023-08-18T16:34:59.535Z,30.10
2023-08-18T16:37:26.818Z,30.10
2023-08-18T16:39:54.227Z,30.00
2023-08-18T16:42:21.616Z,29.90
2023-08-18T16:44:49.003Z,29.90
2023-08-18T16:47:16.466Z,29.90
2023-08-18T16:49:43.922Z,29.90
2023-08-18T16:52:11.463Z,29.90
2023-08-18T16:54:38.792Z,29.90
2023-08-18T16:57:06.587Z,29.80
2023-08-18T16:59:34.411Z,29.80
2023-08-18T17:02:02.630Z,29.70
2023-08-18T17:04:33.624Z,29.80
2023-08-18T17:07:00.967Z,29.70
2023-08-18T17:09:28.365Z,29.70
2023-08-18T17:11:55.660Z,29.70
2023-08-18T17:14:23.715Z,29.70
2023-08-18T17:16:51.193Z,29.70
2023-08-18T17:19:18.554Z,29.70
2023-08-18T17:21:45.876Z,29.60
2023-08-18T17:24:15.981Z,29.60
2023-08-18T17:26:43.818Z,29.60
2023-08-18T17:29:11.067Z,29.60
2023-08-18T17:31:39.095Z,29.50
2023-08-18T17:34:06.334Z,29.50
2023-08-18T17:36:33.727Z,29.40
2023-08-18T17:39:00.985Z,29.40
2023-08-18T17:41:28.515Z,29.40
2023-08-18T17:43:55.787Z,29.40
2023-08-18T17:46:23.193Z,29.30
2023-08-18T17:48:50.432Z,29.30
2023-08-18T17:51:17.792Z,29.30
2023-08-18T17:53:45.062Z,29.30
2023-08-18T17:56:12.473Z,29.30
2023-08-18T17:58:39.739Z,29.30
2023-08-18T18:01:07.328Z,29.30
2023-08-18T18:03:34.792Z,29.30
2023-08-18T18:06:02.262Z,29.30
2023-08-18T18:08:29.681Z,29.30
2023-08-18T18:10:57.144Z,29.30
2023-08-18T18:13:24.383Z,29.30
2023-08-18T18:15:51.812Z,29.30
2023-08-18T18:18:20.978Z,29.30
2023-08-18T18:20:48.281Z,29.30
2023-08-18T18:23:15.796Z,29.30
2023-08-18T18:25:43.127Z,29.30
2023-08-18T18:28:10.605Z,29.20
2023-08-18T18:30:37.856Z,29.20
2023-08-18T18:33:05.618Z,29.20
2023-08-18T18:35:32.952Z,29.20
2023-08-18T18:38:00.301Z,29.20
2023-08-18T18:40:27.644Z,29.20
2023-08-18T18:42:54.991Z,29.10
2023-08-18T18:45:22.940Z,29.10
2023-08-18T18:47:50.373Z,29.10
2023-08-18T18:50:17.685Z,29.10
2023-08-18T18:52:45.272Z,29.10
2023-08-18T18:55:12.653Z,29.10
2023-08-18T18:57:40.664Z,29.10
2023-08-18T19:00:08.433Z,29.10
2023-08-18T19:02:35.899Z,29.00
2023-08-18T19:05:03.686Z,29.00
2023-08-18T19:07:31.205Z,29.00
2023-08-18T19:09:58.864Z,29.00
2023-08-18T19:12:26.466Z,29.00
2023-08-18T19:14:53.839Z,29.00
2023-08-18T19:17:21.204Z,29.00
2023-08-18T19:19:48.690Z,29.00
2023-08-18T19:22:20.059Z,29.00
2023-08-18T19:24:47.265Z,29.00
2023-08-18T19:27:14.628Z,29.00
2023-08-18T19:29:42.741Z,29.00
2023-08-18T19:32:11.192Z,28.90
2023-08-18T19:34:38.697Z,28.90
2023-08-18T19:37:08.204Z,28.90
2023-08-18T19:39:36.876Z,28.90
2023-08-18T19:42:07.549Z,28.90
2023-08-18T19:44:36.222Z,28.80
2023-08-18T19:47:05.354Z,28.80
2023-08-18T19:49:32.871Z,28.70
2023-08-18T19:52:00.223Z,28.70
2023-08-18T19:54:27.704Z,28.70
2023-08-18T19:56:54.937Z,28.70
2023-08-18T19:59:22.983Z,28.60
2023-08-18T20:01:50.862Z,28.60
2023-08-18T20:04:18.211Z,28.60
2023-08-18T20:06:46.923Z,28.60
2023-08-18T20:09:14.346Z,28.50
2023-08-18T20:11:41.687Z,28.50
2023-08-18T20:14:08.969Z,28.50
2023-08-18T20:16:36.364Z,28.50
2023-08-18T20:19:04.999Z,28.50
2023-08-18T20:21:36.380Z,28.50
2023-08-18T20:24:04.243Z,28.50
2023-08-18T20:26:31.534Z,28.40
2023-08-18T20:29:01.780Z,28.40
2023-08-18T20:31:29.195Z,28.40
2023-08-18T20:33:56.541Z,28.30
2023-08-18T20:36:26.055Z,28.30
2023-08-18T20:39:01.755Z,28.30
2023-08-18T20:41:29.120Z,28.30
2023-08-18T20:43:56.416Z,28.30
2023-08-18T20:46:24.479Z,28.30
2023-08-18T20:48:53.427Z,28.30
2023-08-18T20:51:20.814Z,28.30
2023-08-18T20:53:50.133Z,28.30
2023-08-18T20:56:17.489Z,28.20
2023-08-18T20:58:44.792Z,28.20
2023-08-18T21:01:12.209Z,28.20
2023-08-18T21:03:42.276Z,28.20
2023-08-18T21:06:09.719Z,28.10
2023-08-18T21:08:39.356Z,28.10
2023-08-18T21:11:06.772Z,28.10
2023-08-18T21:13:34.246Z,28.10
2023-08-18T21:16:02.007Z,28.00
2023-08-18T21:18:29.301Z,28.00
2023-08-18T21:21:00.925Z,28.00
2023-08-18T21:23:28.436Z,28.00
2023-08-18T21:25:55.695Z,27.90
2023-08-18T21:28:23.012Z,27.90
2023-08-18T21:30:51.575Z,28.00
2023-08-18T21:33:18.802Z,27.90
2023-08-18T21:35:46.707Z,27.90
2023-08-18T21:38:14.050Z,27.90
2023-08-18T21:40:41.385Z,27.90
2023-08-18T21:43:08.629Z,27.80
2023-08-18T21:45:35.945Z,27.80
2023-08-18T21:48:03.895Z,27.80
2023-08-18T21:50:31.353Z,27.80
2023-08-18T21:52:58.714Z,27.80
2023-08-18T21:55:26.100Z,27.70
2023-08-18T21:57:53.492Z,27.70
2023-08-18T22:00:20.812Z,27.60
2023-08-18T22:02:48.571Z,27.60
2023-08-18T22:05:16.029Z,27.60
2023-08-18T22:07:47.473Z,27.50
2023-08-18T22:10:15.724Z,27.50
2023-08-18T22:12:43.510Z,27.50
2023-08-18T22:15:11.885Z,27.50
2023-08-18T22:17:39.374Z,27.40
2023-08-18T22:20:10.634Z,27.40
2023-08-18T22:22:38.298Z,27.40
2023-08-18T22:25:06.106Z,27.40
2023-08-18T22:27:33.524Z,27.40
2023-08-18T22:30:00.941Z,27.40
2023-08-18T22:32:28.444Z,27.40
2023-08-18T22:34:55.997Z,27.40
2023-08-18T22:37:23.401Z,27.40
2023-08-18T22:39:50.982Z,27.40
2023-08-18T22:42:18.308Z,27.30
2023-08-18T22:44:46.292Z,27.40
2023-08-18T22:47:16.145Z,27.30
2023-08-18T22:49:46.032Z,27.30
2023-08-18T22:52:14.065Z,27.30
2023-08-18T22:54:42.044Z,27.20
2023-08-18T22:57:09.659Z,27.20
2023-08-18T22:59:36.990Z,27.20
2023-08-18T23:02:04.927Z,27.20
2023-08-18T23:04:32.179Z,27.20
2023-08-18T23:06:59.695Z,27.20
2023-08-18T23:09:27.019Z,27.10
2023-08-18T23:11:54.356Z,27.10
2023-08-18T23:14:21.915Z,27.10
2023-08-18T23:16:49.248Z,27.10
2023-08-18T23:19:16.573Z,27.00
2023-08-18T23:21:43.887Z,27.00
2023-08-18T23:24:11.271Z,26.90
2023-08-18T23:26:38.706Z,26.90
2023-08-18T23:29:07.956Z,26.90
2023-08-18T23:31:35.326Z,26.90
2023-08-18T23:34:02.656Z,26.90
2023-08-18T23:36:29.945Z,26.90
2023-08-18T23:38:58.173Z,26.90
2023-08-18T23:41:25.578Z,26.80
2023-08-18T23:43:52.800Z,26.80
2023-08-18T23:46:20.171Z,26.80
2023-08-18T23:48:48.962Z,26.80
2023-08-18T23:51:18.993Z,26.80
2023-08-18T23:53:47.206Z,26.80
2023-08-18T23:56:15.286Z,26.90
2023-08-18T23:58:42.617Z,26.80
